sensor_id;sensor_type;location;lat;lon;timestamp;P1;durP1;ratioP1;P2;durP2;ratioP2
17858;SDS011;35426;30.698;104.050;2023-05-07T00:00:47;23.93;;;11.30;;
17858;SDS011;35426;30.698;104.050;2023-05-07T00:03:25;17.57;;;10.80;;
17858;SDS011;35426;30.698;104.050;2023-05-07T00:06:04;20.50;;;11.97;;
17858;SDS011;35426;30.698;104.050;2023-05-07T00:08:46;27.17;;;14.97;;
17858;SDS011;35426;30.698;104.050;2023-05-07T00:11:22;25.27;;;12.00;;
17858;SDS011;35426;30.698;104.050;2023-05-07T00:14:00;20.37;;;11.07;;
17858;SDS011;35426;30.698;104.050;2023-05-07T00:16:34;22.87;;;10.60;;
17858;SDS011;35426;30.698;104.050;2023-05-07T00:19:13;18.87;;;11.03;;
17858;SDS011;35426;30.698;104.050;2023-05-07T00:21:49;21.93;;;11.67;;
17858;SDS011;35426;30.698;104.050;2023-05-07T00:24:29;19.47;;;11.00;;
17858;SDS011;35426;30.698;104.050;2023-05-07T00:27:05;19.97;;;11.63;;
17858;SDS011;35426;30.698;104.050;2023-05-07T00:29:44;17.73;;;10.17;;
17858;SDS011;35426;30.698;104.050;2023-05-07T00:32:18;17.87;;;10.83;;
17858;SDS011;35426;30.698;104.050;2023-05-07T00:34:59;20.00;;;10.37;;
17858;SDS011;35426;30.698;104.050;2023-05-07T00:37:38;17.87;;;11.57;;
17858;SDS011;35426;30.698;104.050;2023-05-07T00:40:24;44.10;;;23.87;;
17858;SDS011;35426;30.698;104.050;2023-05-07T00:43:03;19.53;;;11.97;;
17858;SDS011;35426;30.698;104.050;2023-05-07T00:45:38;18.67;;;10.90;;
17858;SDS011;35426;30.698;104.050;2023-05-07T00:48:13;17.00;;;11.40;;
17858;SDS011;35426;30.698;104.050;2023-05-07T00:50:59;19.87;;;10.33;;
17858;SDS011;35426;30.698;104.050;2023-05-07T00:53:35;18.40;;;11.73;;
17858;SDS011;35426;30.698;104.050;2023-05-07T00:56:17;18.73;;;11.53;;
17858;SDS011;35426;30.698;104.050;2023-05-07T00:58:55;17.33;;;10.60;;
17858;SDS011;35426;30.698;104.050;2023-05-07T01:01:29;16.00;;;9.95;;
17858;SDS011;35426;30.698;104.050;2023-05-07T01:04:09;18.27;;;9.60;;
17858;SDS011;35426;30.698;104.050;2023-05-07T01:06:46;18.92;;;10.07;;
17858;SDS011;35426;30.698;104.050;2023-05-07T01:09:23;15.77;;;9.88;;
17858;SDS011;35426;30.698;104.050;2023-05-07T01:12:04;12.13;;;9.68;;
17858;SDS011;35426;30.698;104.050;2023-05-07T01:14:38;13.27;;;10.00;;
17858;SDS011;35426;30.698;104.050;2023-05-07T01:17:12;14.07;;;11.32;;
17858;SDS011;35426;30.698;104.050;2023-05-07T01:19:48;17.73;;;10.07;;
17858;SDS011;35426;30.698;104.050;2023-05-07T01:22:29;16.17;;;10.82;;
17858;SDS011;35426;30.698;104.050;2023-05-07T01:25:08;18.85;;;11.10;;
17858;SDS011;35426;30.698;104.050;2023-05-07T01:27:49;17.52;;;10.48;;
17858;SDS011;35426;30.698;104.050;2023-05-07T01:30:29;14.23;;;9.25;;
17858;SDS011;35426;30.698;104.050;2023-05-07T01:33:09;19.17;;;10.15;;
17858;SDS011;35426;30.698;104.050;2023-05-07T01:35:48;17.30;;;9.82;;
17858;SDS011;35426;30.698;104.050;2023-05-07T01:38:32;13.32;;;9.00;;
17858;SDS011;35426;30.698;104.050;2023-05-07T01:41:12;16.08;;;8.93;;
17858;SDS011;35426;30.698;104.050;2023-05-07T01:43:48;15.80;;;9.50;;
17858;SDS011;35426;30.698;104.050;2023-05-07T01:46:24;25.88;;;16.58;;
17858;SDS011;35426;30.698;104.050;2023-05-07T01:49:00;15.80;;;10.80;;
17858;SDS011;35426;30.698;104.050;2023-05-07T01:51:38;17.80;;;10.63;;
17858;SDS011;35426;30.698;104.050;2023-05-07T01:54:15;20.30;;;11.25;;
17858;SDS011;35426;30.698;104.050;2023-05-07T01:56:53;16.92;;;11.40;;
17858;SDS011;35426;30.698;104.050;2023-05-07T01:59:29;16.88;;;9.80;;
17858;SDS011;35426;30.698;104.050;2023-05-07T02:02:15;15.80;;;10.40;;
17858;SDS011;35426;30.698;104.050;2023-05-07T02:04:54;19.10;;;9.85;;
17858;SDS011;35426;30.698;104.050;2023-05-07T02:07:31;16.63;;;10.07;;
17858;SDS011;35426;30.698;104.050;2023-05-07T02:10:12;18.23;;;10.82;;
17858;SDS011;35426;30.698;104.050;2023-05-07T02:12:50;19.13;;;11.93;;
17858;SDS011;35426;30.698;104.050;2023-05-07T02:15:46;19.70;;;11.60;;
17858;SDS011;35426;30.698;104.050;2023-05-07T02:18:37;21.02;;;11.75;;
17858;SDS011;35426;30.698;104.050;2023-05-07T02:21:14;20.05;;;12.68;;
17858;SDS011;35426;30.698;104.050;2023-05-07T02:23:49;22.70;;;13.18;;
17858;SDS011;35426;30.698;104.050;2023-05-07T02:26:39;22.90;;;13.45;;
17858;SDS011;35426;30.698;104.050;2023-05-07T02:29:21;21.70;;;14.30;;
17858;SDS011;35426;30.698;104.050;2023-05-07T02:31:59;25.65;;;15.30;;
17858;SDS011;35426;30.698;104.050;2023-05-07T02:34:35;21.23;;;13.68;;
17858;SDS011;35426;30.698;104.050;2023-05-07T02:37:09;24.10;;;14.70;;
17858;SDS011;35426;30.698;104.050;2023-05-07T02:39:48;23.88;;;15.80;;
17858;SDS011;35426;30.698;104.050;2023-05-07T02:42:24;25.73;;;15.33;;
17858;SDS011;35426;30.698;104.050;2023-05-07T02:45:01;24.10;;;17.40;;
17858;SDS011;35426;30.698;104.050;2023-05-07T02:47:41;23.10;;;15.23;;
17858;SDS011;35426;30.698;104.050;2023-05-07T02:50:18;28.70;;;17.20;;
17858;SDS011;35426;30.698;104.050;2023-05-07T02:52:56;28.80;;;17.73;;
17858;SDS011;35426;30.698;104.050;2023-05-07T02:55:32;30.90;;;19.53;;
17858;SDS011;35426;30.698;104.050;2023-05-07T02:58:20;28.03;;;19.27;;
17858;SDS011;35426;30.698;104.050;2023-05-07T03:01:03;28.73;;;20.37;;
17858;SDS011;35426;30.698;104.050;2023-05-07T03:03:59;30.87;;;21.40;;
17858;SDS011;35426;30.698;104.050;2023-05-07T03:06:34;33.30;;;20.13;;
17858;SDS011;35426;30.698;104.050;2023-05-07T03:09:12;32.53;;;21.83;;
17858;SDS011;35426;30.698;104.050;2023-05-07T03:11:50;39.13;;;23.17;;
17858;SDS011;35426;30.698;104.050;2023-05-07T03:14:40;33.97;;;23.40;;
17858;SDS011;35426;30.698;104.050;2023-05-07T03:17:19;33.90;;;21.90;;
17858;SDS011;35426;30.698;104.050;2023-05-07T03:19:53;35.23;;;22.43;;
17858;SDS011;35426;30.698;104.050;2023-05-07T03:22:29;31.33;;;22.17;;
17858;SDS011;35426;30.698;104.050;2023-05-07T03:25:07;36.10;;;23.43;;
17858;SDS011;35426;30.698;104.050;2023-05-07T03:27:48;39.40;;;24.30;;
17858;SDS011;35426;30.698;104.050;2023-05-07T03:30:40;35.77;;;23.73;;
17858;SDS011;35426;30.698;104.050;2023-05-07T03:33:21;40.23;;;25.17;;
17858;SDS011;35426;30.698;104.050;2023-05-07T03:35:58;34.97;;;23.70;;
17858;SDS011;35426;30.698;104.050;2023-05-07T03:38:32;32.57;;;23.30;;
17858;SDS011;35426;30.698;104.050;2023-05-07T03:41:07;36.93;;;24.13;;
17858;SDS011;35426;30.698;104.050;2023-05-07T03:43:49;36.10;;;23.77;;
17858;SDS011;35426;30.698;104.050;2023-05-07T03:46:41;36.33;;;23.97;;
17858;SDS011;35426;30.698;104.050;2023-05-07T03:49:34;30.50;;;21.30;;
17858;SDS011;35426;30.698;104.050;2023-05-07T03:52:09;30.27;;;21.60;;
17858;SDS011;35426;30.698;104.050;2023-05-07T03:54:45;30.17;;;21.53;;
17858;SDS011;35426;30.698;104.050;2023-05-07T03:57:20;37.67;;;22.47;;
17858;SDS011;35426;30.698;104.050;2023-05-07T04:00:00;28.97;;;19.70;;
17858;SDS011;35426;30.698;104.050;2023-05-07T04:02:49;29.77;;;17.60;;
17858;SDS011;35426;30.698;104.050;2023-05-07T04:05:27;30.93;;;21.93;;
17858;SDS011;35426;30.698;104.050;2023-05-07T04:08:03;32.83;;;20.33;;
17858;SDS011;35426;30.698;104.050;2023-05-07T04:10:48;30.87;;;20.17;;
17858;SDS011;35426;30.698;104.050;2023-05-07T04:13:31;34.43;;;18.93;;
17858;SDS011;35426;30.698;104.050;2023-05-07T04:16:08;19.80;;;13.53;;
17858;SDS011;35426;30.698;104.050;2023-05-07T04:18:48;25.47;;;15.33;;
17858;SDS011;35426;30.698;104.050;2023-05-07T04:21:24;22.87;;;14.03;;
17858;SDS011;35426;30.698;104.050;2023-05-07T04:24:02;24.70;;;14.63;;
17858;SDS011;35426;30.698;104.050;2023-05-07T04:26:37;25.17;;;15.10;;
17858;SDS011;35426;30.698;104.050;2023-05-07T04:29:13;27.30;;;14.77;;
17858;SDS011;35426;30.698;104.050;2023-05-07T04:31:49;24.47;;;14.83;;
17858;SDS011;35426;30.698;104.050;2023-05-07T04:34:29;27.30;;;15.50;;
17858;SDS011;35426;30.698;104.050;2023-05-07T04:37:04;26.03;;;15.00;;
17858;SDS011;35426;30.698;104.050;2023-05-07T04:39:45;24.87;;;16.73;;
17858;SDS011;35426;30.698;104.050;2023-05-07T04:42:20;25.13;;;16.10;;
17858;SDS011;35426;30.698;104.050;2023-05-07T04:45:01;26.13;;;17.43;;
17858;SDS011;35426;30.698;104.050;2023-05-07T04:47:47;29.17;;;17.97;;
17858;SDS011;35426;30.698;104.050;2023-05-07T04:50:25;29.60;;;18.17;;
17858;SDS011;35426;30.698;104.050;2023-05-07T04:53:06;27.60;;;19.17;;
17858;SDS011;35426;30.698;104.050;2023-05-07T04:55:43;28.57;;;19.40;;
17858;SDS011;35426;30.698;104.050;2023-05-07T04:58:17;30.43;;;19.37;;
17858;SDS011;35426;30.698;104.050;2023-05-07T05:00:55;33.57;;;20.13;;
17858;SDS011;35426;30.698;104.050;2023-05-07T05:03:29;31.80;;;20.67;;
17858;SDS011;35426;30.698;104.050;2023-05-07T05:06:09;35.70;;;20.83;;
17858;SDS011;35426;30.698;104.050;2023-05-07T05:08:45;28.93;;;19.73;;
17858;SDS011;35426;30.698;104.050;2023-05-07T05:11:23;37.17;;;20.57;;
17858;SDS011;35426;30.698;104.050;2023-05-07T05:14:05;29.77;;;20.93;;
17858;SDS011;35426;30.698;104.050;2023-05-07T05:16:42;33.43;;;20.17;;
17858;SDS011;35426;30.698;104.050;2023-05-07T05:19:19;30.20;;;19.93;;
17858;SDS011;35426;30.698;104.050;2023-05-07T05:21:58;29.57;;;19.40;;
17858;SDS011;35426;30.698;104.050;2023-05-07T05:24:36;27.17;;;18.13;;
17858;SDS011;35426;30.698;104.050;2023-05-07T05:27:11;31.33;;;19.00;;
17858;SDS011;35426;30.698;104.050;2023-05-07T05:29:45;28.67;;;20.33;;
17858;SDS011;35426;30.698;104.050;2023-05-07T05:32:19;31.93;;;20.97;;
17858;SDS011;35426;30.698;104.050;2023-05-07T05:34:57;30.27;;;20.83;;
17858;SDS011;35426;30.698;104.050;2023-05-07T05:37:35;27.33;;;18.97;;
17858;SDS011;35426;30.698;104.050;2023-05-07T05:40:11;25.67;;;18.77;;
17858;SDS011;35426;30.698;104.050;2023-05-07T05:42:46;27.90;;;17.60;;
17858;SDS011;35426;30.698;104.050;2023-05-07T05:45:20;30.70;;;18.10;;
17858;SDS011;35426;30.698;104.050;2023-05-07T05:47:58;30.43;;;19.13;;
17858;SDS011;35426;30.698;104.050;2023-05-07T05:50:36;34.97;;;20.00;;
17858;SDS011;35426;30.698;104.050;2023-05-07T05:53:19;29.93;;;19.93;;
17858;SDS011;35426;30.698;104.050;2023-05-07T05:55:59;31.13;;;21.40;;
17858;SDS011;35426;30.698;104.050;2023-05-07T05:58:35;29.43;;;20.90;;
17858;SDS011;35426;30.698;104.050;2023-05-07T06:01:10;25.87;;;18.23;;
17858;SDS011;35426;30.698;104.050;2023-05-07T06:03:52;27.30;;;18.53;;
17858;SDS011;35426;30.698;104.050;2023-05-07T06:06:37;29.30;;;17.53;;
17858;SDS011;35426;30.698;104.050;2023-05-07T06:09:15;26.00;;;18.07;;
17858;SDS011;35426;30.698;104.050;2023-05-07T06:11:56;25.53;;;16.73;;
17858;SDS011;35426;30.698;104.050;2023-05-07T06:14:31;25.80;;;17.30;;
17858;SDS011;35426;30.698;104.050;2023-05-07T06:17:07;25.37;;;17.60;;
17858;SDS011;35426;30.698;104.050;2023-05-07T06:19:53;27.50;;;17.10;;
17858;SDS011;35426;30.698;104.050;2023-05-07T06:22:31;27.20;;;17.23;;
17858;SDS011;35426;30.698;104.050;2023-05-07T06:25:07;24.60;;;15.63;;
17858;SDS011;35426;30.698;104.050;2023-05-07T06:27:46;21.43;;;15.67;;
17858;SDS011;35426;30.698;104.050;2023-05-07T06:30:25;18.87;;;14.10;;
17858;SDS011;35426;30.698;104.050;2023-05-07T06:33:08;22.60;;;14.77;;
17858;SDS011;35426;30.698;104.050;2023-05-07T06:35:44;22.83;;;15.00;;
17858;SDS011;35426;30.698;104.050;2023-05-07T06:38:28;18.97;;;12.37;;
17858;SDS011;35426;30.698;104.050;2023-05-07T06:41:07;19.50;;;12.43;;
17858;SDS011;35426;30.698;104.050;2023-05-07T06:43:45;18.87;;;13.43;;
17858;SDS011;35426;30.698;104.050;2023-05-07T06:46:31;19.07;;;12.17;;
17858;SDS011;35426;30.698;104.050;2023-05-07T06:49:08;15.90;;;12.43;;
17858;SDS011;35426;30.698;104.050;2023-05-07T06:51:45;20.77;;;11.33;;
17858;SDS011;35426;30.698;104.050;2023-05-07T06:54:24;16.07;;;12.20;;
17858;SDS011;35426;30.698;104.050;2023-05-07T06:57:00;20.80;;;13.23;;
17858;SDS011;35426;30.698;104.050;2023-05-07T06:59:37;18.23;;;12.07;;
17858;SDS011;35426;30.698;104.050;2023-05-07T07:02:12;17.57;;;11.50;;
17858;SDS011;35426;30.698;104.050;2023-05-07T07:04:46;16.33;;;12.37;;
17858;SDS011;35426;30.698;104.050;2023-05-07T07:07:35;14.83;;;11.27;;
17858;SDS011;35426;30.698;104.050;2023-05-07T07:10:11;20.27;;;13.17;;
17858;SDS011;35426;30.698;104.050;2023-05-07T07:12:47;22.63;;;14.47;;
17858;SDS011;35426;30.698;104.050;2023-05-07T07:15:24;29.97;;;13.50;;
17858;SDS011;35426;30.698;104.050;2023-05-07T07:17:59;17.50;;;13.00;;
17858;SDS011;35426;30.698;104.050;2023-05-07T07:20:34;17.00;;;13.70;;
17858;SDS011;35426;30.698;104.050;2023-05-07T07:23:14;17.53;;;12.97;;
17858;SDS011;35426;30.698;104.050;2023-05-07T07:25:50;19.07;;;12.63;;
17858;SDS011;35426;30.698;104.050;2023-05-07T07:28:33;17.33;;;12.37;;
17858;SDS011;35426;30.698;104.050;2023-05-07T07:31:16;17.10;;;11.00;;
17858;SDS011;35426;30.698;104.050;2023-05-07T07:33:53;16.77;;;10.10;;
17858;SDS011;35426;30.698;104.050;2023-05-07T07:36:44;14.53;;;10.10;;
17858;SDS011;35426;30.698;104.050;2023-05-07T07:39:19;15.17;;;9.73;;
17858;SDS011;35426;30.698;104.050;2023-05-07T07:41:58;18.27;;;10.40;;
17858;SDS011;35426;30.698;104.050;2023-05-07T07:44:38;18.97;;;11.03;;
17858;SDS011;35426;30.698;104.050;2023-05-07T07:47:16;13.50;;;9.33;;
17858;SDS011;35426;30.698;104.050;2023-05-07T07:49:55;16.23;;;11.10;;
17858;SDS011;35426;30.698;104.050;2023-05-07T07:52:29;14.53;;;9.47;;
17858;SDS011;35426;30.698;104.050;2023-05-07T07:55:09;16.93;;;9.13;;
17858;SDS011;35426;30.698;104.050;2023-05-07T07:57:47;16.47;;;9.73;;
17858;SDS011;35426;30.698;104.050;2023-05-07T08:00:24;12.77;;;9.60;;
17858;SDS011;35426;30.698;104.050;2023-05-07T08:03:00;14.27;;;9.17;;
17858;SDS011;35426;30.698;104.050;2023-05-07T08:05:47;16.87;;;9.57;;
17858;SDS011;35426;30.698;104.050;2023-05-07T08:08:22;16.97;;;10.47;;
17858;SDS011;35426;30.698;104.050;2023-05-07T08:10:57;15.37;;;10.27;;
17858;SDS011;35426;30.698;104.050;2023-05-07T08:13:35;14.30;;;10.33;;
17858;SDS011;35426;30.698;104.050;2023-05-07T08:16:22;16.10;;;10.20;;
17858;SDS011;35426;30.698;104.050;2023-05-07T08:18:59;15.23;;;10.30;;
17858;SDS011;35426;30.698;104.050;2023-05-07T08:21:34;14.10;;;9.80;;
17858;SDS011;35426;30.698;104.050;2023-05-07T08:24:12;16.53;;;11.47;;
17858;SDS011;35426;30.698;104.050;2023-05-07T08:26:49;16.40;;;10.90;;
17858;SDS011;35426;30.698;104.050;2023-05-07T08:29:24;16.47;;;10.83;;
17858;SDS011;35426;30.698;104.050;2023-05-07T08:32:06;18.87;;;12.03;;
17858;SDS011;35426;30.698;104.050;2023-05-07T08:35:16;23.13;;;11.77;;
17858;SDS011;35426;30.698;104.050;2023-05-07T08:37:51;14.10;;;10.70;;
17858;SDS011;35426;30.698;104.050;2023-05-07T08:40:32;14.60;;;10.87;;
17858;SDS011;35426;30.698;104.050;2023-05-07T08:43:24;22.80;;;12.97;;
17858;SDS011;35426;30.698;104.050;2023-05-07T08:46:07;21.53;;;13.20;;
17858;SDS011;35426;30.698;104.050;2023-05-07T08:48:50;18.67;;;12.47;;
17858;SDS011;35426;30.698;104.050;2023-05-07T08:51:28;18.70;;;12.17;;
17858;SDS011;35426;30.698;104.050;2023-05-07T08:54:04;19.70;;;11.43;;
17858;SDS011;35426;30.698;104.050;2023-05-07T08:56:40;14.10;;;10.23;;
17858;SDS011;35426;30.698;104.050;2023-05-07T08:59:17;20.87;;;12.10;;
17858;SDS011;35426;30.698;104.050;2023-05-07T09:01:55;19.07;;;12.50;;
17858;SDS011;35426;30.698;104.050;2023-05-07T09:04:33;19.37;;;10.83;;
17858;SDS011;35426;30.698;104.050;2023-05-07T09:07:08;23.60;;;11.90;;
17858;SDS011;35426;30.698;104.050;2023-05-07T09:09:47;26.70;;;11.40;;
17858;SDS011;35426;30.698;104.050;2023-05-07T09:12:22;21.77;;;11.63;;
17858;SDS011;35426;30.698;104.050;2023-05-07T09:14:56;24.93;;;12.77;;
17858;SDS011;35426;30.698;104.050;2023-05-07T09:17:32;19.57;;;12.77;;
17858;SDS011;35426;30.698;104.050;2023-05-07T09:20:10;23.20;;;13.77;;
17858;SDS011;35426;30.698;104.050;2023-05-07T09:22:58;25.30;;;13.20;;
17858;SDS011;35426;30.698;104.050;2023-05-07T09:25:33;22.47;;;11.83;;
17858;SDS011;35426;30.698;104.050;2023-05-07T09:28:17;21.57;;;11.83;;
17858;SDS011;35426;30.698;104.050;2023-05-07T09:30:52;24.77;;;13.93;;
17858;SDS011;35426;30.698;104.050;2023-05-07T09:33:29;24.93;;;12.80;;
17858;SDS011;35426;30.698;104.050;2023-05-07T09:36:09;23.67;;;12.33;;
17858;SDS011;35426;30.698;104.050;2023-05-07T09:38:45;20.30;;;12.17;;
17858;SDS011;35426;30.698;104.050;2023-05-07T09:41:24;22.57;;;11.97;;
17858;SDS011;35426;30.698;104.050;2023-05-07T09:44:18;26.10;;;11.57;;
17858;SDS011;35426;30.698;104.050;2023-05-07T09:46:55;21.67;;;11.90;;
17858;SDS011;35426;30.698;104.050;2023-05-07T09:49:37;25.10;;;12.27;;
17858;SDS011;35426;30.698;104.050;2023-05-07T09:52:19;21.23;;;12.17;;
17858;SDS011;35426;30.698;104.050;2023-05-07T09:54:56;20.70;;;11.67;;
17858;SDS011;35426;30.698;104.050;2023-05-07T09:57:33;25.83;;;14.13;;
17858;SDS011;35426;30.698;104.050;2023-05-07T10:00:11;27.87;;;12.53;;
17858;SDS011;35426;30.698;104.050;2023-05-07T10:02:48;22.37;;;12.27;;
17858;SDS011;35426;30.698;104.050;2023-05-07T10:05:34;24.03;;;13.17;;
17858;SDS011;35426;30.698;104.050;2023-05-07T10:08:10;27.47;;;12.10;;
17858;SDS011;35426;30.698;104.050;2023-05-07T10:10:49;21.43;;;11.60;;
17858;SDS011;35426;30.698;104.050;2023-05-07T10:13:25;21.33;;;11.57;;
17858;SDS011;35426;30.698;104.050;2023-05-07T10:16:00;20.43;;;10.87;;
17858;SDS011;35426;30.698;104.050;2023-05-07T10:18:43;16.23;;;9.47;;
17858;SDS011;35426;30.698;104.050;2023-05-07T10:21:23;20.90;;;10.33;;
17858;SDS011;35426;30.698;104.050;2023-05-07T10:24:08;18.90;;;9.77;;
17858;SDS011;35426;30.698;104.050;2023-05-07T10:27:01;16.37;;;9.47;;
17858;SDS011;35426;30.698;104.050;2023-05-07T10:29:48;20.47;;;9.67;;
17858;SDS011;35426;30.698;104.050;2023-05-07T10:32:38;18.90;;;10.27;;
17858;SDS011;35426;30.698;104.050;2023-05-07T10:35:24;16.23;;;10.00;;
17858;SDS011;35426;30.698;104.050;2023-05-07T10:38:06;18.57;;;10.33;;
17858;SDS011;35426;30.698;104.050;2023-05-07T10:40:46;21.37;;;11.00;;
17858;SDS011;35426;30.698;104.050;2023-05-07T10:43:24;21.13;;;10.80;;
17858;SDS011;35426;30.698;104.050;2023-05-07T10:49:12;28.73;;;10.90;;
17858;SDS011;35426;30.698;104.050;2023-05-07T11:04:25;20.37;;;11.13;;
17858;SDS011;35426;30.698;104.050;2023-05-07T11:07:30;22.90;;;11.50;;
17858;SDS011;35426;30.698;104.050;2023-05-07T11:10:18;24.10;;;11.20;;
17858;SDS011;35426;30.698;104.050;2023-05-07T11:12:59;25.67;;;11.40;;
17858;SDS011;35426;30.698;104.050;2023-05-07T11:15:55;19.17;;;11.80;;
17858;SDS011;35426;30.698;104.050;2023-05-07T11:18:46;20.50;;;10.70;;
17858;SDS011;35426;30.698;104.050;2023-05-07T11:21:34;22.83;;;12.40;;
17858;SDS011;35426;30.698;104.050;2023-05-07T11:24:28;25.93;;;11.60;;
17858;SDS011;35426;30.698;104.050;2023-05-07T11:27:15;18.53;;;10.90;;
17858;SDS011;35426;30.698;104.050;2023-05-07T11:29:59;17.40;;;10.07;;
17858;SDS011;35426;30.698;104.050;2023-05-07T11:32:35;18.00;;;8.10;;
17858;SDS011;35426;30.698;104.050;2023-05-07T11:35:11;12.23;;;8.00;;
17858;SDS011;35426;30.698;104.050;2023-05-07T11:38:09;14.00;;;6.90;;
17858;SDS011;35426;30.698;104.050;2023-05-07T11:41:01;13.07;;;6.80;;
17858;SDS011;35426;30.698;104.050;2023-05-07T11:46:48;11.70;;;7.47;;
17858;SDS011;35426;30.698;104.050;2023-05-07T11:49:37;11.87;;;6.47;;
17858;SDS011;35426;30.698;104.050;2023-05-07T11:52:11;11.10;;;5.73;;
17858;SDS011;35426;30.698;104.050;2023-05-07T11:54:51;9.37;;;5.67;;
17858;SDS011;35426;30.698;104.050;2023-05-07T11:57:29;11.00;;;6.30;;
17858;SDS011;35426;30.698;104.050;2023-05-07T12:00:15;9.10;;;5.20;;
17858;SDS011;35426;30.698;104.050;2023-05-07T12:02:53;14.30;;;6.27;;
17858;SDS011;35426;30.698;104.050;2023-05-07T12:05:32;9.37;;;5.90;;
17858;SDS011;35426;30.698;104.050;2023-05-07T12:11:13;8.70;;;5.90;;
17858;SDS011;35426;30.698;104.050;2023-05-07T12:13:50;10.90;;;6.40;;
17858;SDS011;35426;30.698;104.050;2023-05-07T12:16:40;9.97;;;6.43;;
17858;SDS011;35426;30.698;104.050;2023-05-07T12:19:16;11.10;;;6.60;;
17858;SDS011;35426;30.698;104.050;2023-05-07T12:21:51;9.77;;;6.87;;
17858;SDS011;35426;30.698;104.050;2023-05-07T12:24:27;7.77;;;5.90;;
17858;SDS011;35426;30.698;104.050;2023-05-07T12:27:22;9.30;;;6.67;;
17858;SDS011;35426;30.698;104.050;2023-05-07T12:30:06;10.40;;;6.30;;
17858;SDS011;35426;30.698;104.050;2023-05-07T12:32:53;10.87;;;6.50;;
17858;SDS011;35426;30.698;104.050;2023-05-07T12:35:30;11.80;;;6.33;;
17858;SDS011;35426;30.698;104.050;2023-05-07T12:38:12;9.43;;;6.27;;
17858;SDS011;35426;30.698;104.050;2023-05-07T12:40:53;17.93;;;6.20;;
17858;SDS011;35426;30.698;104.050;2023-05-07T12:43:34;10.70;;;6.13;;
17858;SDS011;35426;30.698;104.050;2023-05-07T12:46:15;8.53;;;5.63;;
17858;SDS011;35426;30.698;104.050;2023-05-07T12:48:53;7.90;;;5.70;;
17858;SDS011;35426;30.698;104.050;2023-05-07T12:51:29;8.23;;;5.80;;
17858;SDS011;35426;30.698;104.050;2023-05-07T12:54:09;10.53;;;5.77;;
17858;SDS011;35426;30.698;104.050;2023-05-07T12:56:43;7.63;;;5.47;;
17858;SDS011;35426;30.698;104.050;2023-05-07T12:59:33;7.50;;;5.30;;
17858;SDS011;35426;30.698;104.050;2023-05-07T13:02:10;11.83;;;5.70;;
17858;SDS011;35426;30.698;104.050;2023-05-07T13:04:44;9.00;;;5.60;;
17858;SDS011;35426;30.698;104.050;2023-05-07T13:07:24;7.60;;;5.50;;
17858;SDS011;35426;30.698;104.050;2023-05-07T13:10:10;10.77;;;6.37;;
17858;SDS011;35426;30.698;104.050;2023-05-07T13:12:48;10.33;;;5.97;;
17858;SDS011;35426;30.698;104.050;2023-05-07T13:15:35;8.73;;;5.50;;
17858;SDS011;35426;30.698;104.050;2023-05-07T13:18:15;9.00;;;6.07;;
17858;SDS011;35426;30.698;104.050;2023-05-07T13:20:53;8.10;;;6.17;;
17858;SDS011;35426;30.698;104.050;2023-05-07T13:23:34;9.20;;;6.30;;
17858;SDS011;35426;30.698;104.050;2023-05-07T13:26:11;12.50;;;6.77;;
17858;SDS011;35426;30.698;104.050;2023-05-07T13:28:54;8.90;;;6.60;;
17858;SDS011;35426;30.698;104.050;2023-05-07T13:31:34;9.43;;;7.10;;
17858;SDS011;35426;30.698;104.050;2023-05-07T13:34:41;9.83;;;6.87;;
17858;SDS011;35426;30.698;104.050;2023-05-07T13:37:23;11.60;;;7.73;;
17858;SDS011;35426;30.698;104.050;2023-05-07T13:40:08;12.73;;;7.80;;
17858;SDS011;35426;30.698;104.050;2023-05-07T13:42:47;9.90;;;7.50;;
17858;SDS011;35426;30.698;104.050;2023-05-07T13:45:26;13.13;;;7.87;;
17858;SDS011;35426;30.698;104.050;2023-05-07T13:48:12;10.20;;;7.30;;
17858;SDS011;35426;30.698;104.050;2023-05-07T13:50:54;12.07;;;7.77;;
17858;SDS011;35426;30.698;104.050;2023-05-07T13:53:31;11.77;;;7.57;;
17858;SDS011;35426;30.698;104.050;2023-05-07T13:56:14;12.20;;;7.60;;
17858;SDS011;35426;30.698;104.050;2023-05-07T13:58:53;11.53;;;7.50;;
17858;SDS011;35426;30.698;104.050;2023-05-07T14:01:28;10.37;;;7.63;;
17858;SDS011;35426;30.698;104.050;2023-05-07T14:04:08;14.97;;;8.20;;
17858;SDS011;35426;30.698;104.050;2023-05-07T14:06:45;14.07;;;8.23;;
17858;SDS011;35426;30.698;104.050;2023-05-07T14:09:20;13.93;;;8.37;;
17858;SDS011;35426;30.698;104.050;2023-05-07T14:12:05;14.43;;;9.00;;
17858;SDS011;35426;30.698;104.050;2023-05-07T14:14:40;13.07;;;8.70;;
17858;SDS011;35426;30.698;104.050;2023-05-07T14:17:28;13.73;;;9.07;;
17858;SDS011;35426;30.698;104.050;2023-05-07T14:20:12;15.37;;;8.67;;
17858;SDS011;35426;30.698;104.050;2023-05-07T14:22:51;12.80;;;8.70;;
17858;SDS011;35426;30.698;104.050;2023-05-07T14:25:31;13.67;;;8.77;;
17858;SDS011;35426;30.698;104.050;2023-05-07T14:28:09;13.53;;;9.17;;
17858;SDS011;35426;30.698;104.050;2023-05-07T14:30:48;12.43;;;9.03;;
17858;SDS011;35426;30.698;104.050;2023-05-07T14:33:28;14.10;;;9.20;;
17858;SDS011;35426;30.698;104.050;2023-05-07T14:36:04;12.40;;;8.90;;
17858;SDS011;35426;30.698;104.050;2023-05-07T14:38:45;13.73;;;8.60;;
17858;SDS011;35426;30.698;104.050;2023-05-07T14:41:22;13.53;;;9.07;;
17858;SDS011;35426;30.698;104.050;2023-05-07T14:44:01;12.93;;;8.43;;
17858;SDS011;35426;30.698;104.050;2023-05-07T14:46:38;16.23;;;9.30;;
17858;SDS011;35426;30.698;104.050;2023-05-07T14:49:22;16.57;;;8.97;;
17858;SDS011;35426;30.698;104.050;2023-05-07T14:52:07;17.27;;;9.43;;
17858;SDS011;35426;30.698;104.050;2023-05-07T14:54:44;16.97;;;9.10;;
17858;SDS011;35426;30.698;104.050;2023-05-07T14:57:21;15.13;;;9.60;;
17858;SDS011;35426;30.698;104.050;2023-05-07T15:00:02;15.07;;;9.17;;
17858;SDS011;35426;30.698;104.050;2023-05-07T15:02:41;13.50;;;9.73;;
17858;SDS011;35426;30.698;104.050;2023-05-07T15:05:37;15.93;;;9.97;;
17858;SDS011;35426;30.698;104.050;2023-05-07T15:08:16;16.57;;;9.90;;
17858;SDS011;35426;30.698;104.050;2023-05-07T15:10:52;16.53;;;10.40;;
17858;SDS011;35426;30.698;104.050;2023-05-07T15:13:29;13.63;;;9.37;;
17858;SDS011;35426;30.698;104.050;2023-05-07T15:16:09;15.37;;;10.00;;
17858;SDS011;35426;30.698;104.050;2023-05-07T15:18:49;17.03;;;10.77;;
17858;SDS011;35426;30.698;104.050;2023-05-07T15:21:26;14.90;;;9.93;;
17858;SDS011;35426;30.698;104.050;2023-05-07T15:24:06;14.80;;;10.57;;
17858;SDS011;35426;30.698;104.050;2023-05-07T15:26:44;17.43;;;11.47;;
17858;SDS011;35426;30.698;104.050;2023-05-07T15:29:18;17.50;;;11.53;;
17858;SDS011;35426;30.698;104.050;2023-05-07T15:32:00;16.07;;;11.77;;
17858;SDS011;35426;30.698;104.050;2023-05-07T15:34:36;16.30;;;11.73;;